Time;durP1;ratioP1;P1;durP2;ratioP2;P2;SDS_P1;SDS_P2;PMS_P1;PMS_P2;Temp;Humidity;BMP_temperature;BMP_pressure;BME280_temperature;BME280_humidity;BME280_pressure;Samples;Min_cycle;Max_cycle;Signal;HPM_P1;HPM_P2
2023/11/28 00:00:49;;;;;;;0.70;0.70;;;2.40;99.90;;;;;;5064038;28;20805;-59
2023/11/28 00:03:14;;;;;;;1.87;0.80;;;2.30;99.90;;;;;;5062906;28;20634;-60
2023/11/28 00:05:40;;;;;;;1.00;1.00;;;2.30;99.90;;;;;;5065500;28;20512;-59
2023/11/28 00:08:06;;;;;;;1.00;1.00;;;2.30;99.90;;;;;;5060374;28;20182;-60
2023/11/28 00:10:32;;;;;;;0.80;0.80;;;2.30;99.90;;;;;;5066589;28;20190;-59
2023/11/28 00:12:57;;;;;;;1.13;1.00;;;2.30;99.90;;;;;;5065659;28;20233;-59
2023/11/28 00:15:23;;;;;;;1.07;0.93;;;2.30;99.90;;;;;;5065749;28;20204;-60
2023/11/28 00:17:48;;;;;;;1.07;0.97;;;2.40;99.90;;;;;;5051962;28;20276;-59
2023/11/28 00:20:14;;;;;;;0.80;0.80;;;2.40;99.90;;;;;;5060351;28;20665;-60
2023/11/28 00:22:40;;;;;;;0.77;0.77;;;2.40;99.90;;;;;;5066014;28;20199;-60
2023/11/28 00:25:06;;;;;;;0.83;0.83;;;2.40;99.90;;;;;;5063522;28;20188;-60
2023/11/28 00:27:32;;;;;;;1.63;0.80;;;2.40;99.90;;;;;;5067292;28;20189;-61
2023/11/28 00:29:58;;;;;;;1.10;1.00;;;2.40;99.90;;;;;;5064002;28;20431;-60
2023/11/28 00:32:23;;;;;;;0.97;0.97;;;2.40;99.90;;;;;;5060313;28;20437;-59
2023/11/28 00:34:49;;;;;;;0.87;0.87;;;2.40;99.90;;;;;;5064398;28;20181;-59
2023/11/28 00:37:14;;;;;;;0.80;0.80;;;2.40;99.90;;;;;;5066851;28;20195;-59
2023/11/28 00:39:40;;;;;;;1.07;0.90;;;2.40;99.90;;;;;;5062680;28;20178;-59
2023/11/28 00:42:06;;;;;;;1.33;1.10;;;2.40;99.90;;;;;;5062872;28;20199;-60
2023/11/28 00:44:32;;;;;;;0.80;0.80;;;2.40;99.90;;;;;;5068045;28;20174;-60
2023/11/28 00:46:57;;;;;;;0.70;0.70;;;2.50;99.90;;;;;;5058246;28;20530;-60
2023/11/28 00:49:23;;;;;;;0.90;0.90;;;2.50;99.90;;;;;;5061217;28;20187;-60
2023/11/28 00:51:49;;;;;;;0.73;0.73;;;2.50;99.90;;;;;;5059471;28;20707;-59
2023/11/28 00:54:14;;;;;;;0.80;0.80;;;2.50;99.90;;;;;;5066308;28;20184;-59
2023/11/28 00:56:40;;;;;;;0.83;0.83;;;2.50;99.90;;;;;;5062599;28;20183;-60
2023/11/28 00:59:06;;;;;;;0.80;0.80;;;2.50;99.90;;;;;;5055633;28;20559;-59
2023/11/28 01:01:31;;;;;;;0.90;0.90;;;2.50;99.90;;;;;;5064823;28;20206;-59
2023/11/28 01:03:57;;;;;;;0.90;0.90;;;2.50;99.90;;;;;;5065073;28;20739;-59
2023/11/28 01:06:22;;;;;;;0.80;0.80;;;2.60;99.90;;;;;;5067185;28;20577;-60
2023/11/28 01:08:48;;;;;;;3.70;0.90;;;2.60;99.90;;;;;;5063626;28;20186;-59
2023/11/28 01:11:15;;;;;;;0.80;0.80;;;2.60;99.90;;;;;;5063838;28;20205;-59
2023/11/28 01:13:41;;;;;;;0.87;0.87;;;2.60;99.90;;;;;;5061701;28;20230;-59
2023/11/28 01:16:10;;;;;;;0.90;0.90;;;2.60;99.90;;;;;;5064025;28;20991;-60
2023/11/28 01:18:35;;;;;;;0.90;0.90;;;2.60;99.90;;;;;;5061866;28;20214;-59
2023/11/28 01:21:02;;;;;;;0.80;0.80;;;2.70;99.90;;;;;;5065328;28;20455;-59
2023/11/28 01:23:27;;;;;;;0.80;0.80;;;2.60;99.90;;;;;;5064765;28;20178;-59
2023/11/28 01:25:53;;;;;;;1.50;1.40;;;2.60;99.90;;;;;;5062893;28;20519;-59
2023/11/28 01:28:19;;;;;;;0.90;0.90;;;2.70;99.90;;;;;;5058497;28;20601;-59
2023/11/28 01:30:44;;;;;;;0.90;0.90;;;2.60;99.90;;;;;;5063045;28;20680;-59
2023/11/28 01:33:11;;;;;;;1.20;1.10;;;2.60;99.90;;;;;;5066853;28;20697;-60
2023/11/28 01:35:38;;;;;;;0.90;0.90;;;2.60;99.90;;;;;;5068777;28;20178;-60
2023/11/28 01:38:04;;;;;;;1.30;1.20;;;2.60;99.90;;;;;;5069712;28;20484;-59
2023/11/28 01:40:30;;;;;;;1.60;1.50;;;2.60;99.90;;;;;;5064439;28;20533;-60
2023/11/28 01:42:56;;;;;;;1.30;1.20;;;2.60;99.90;;;;;;5067196;28;20918;-59
2023/11/28 01:45:22;;;;;;;1.00;1.00;;;2.70;99.90;;;;;;5070035;28;20205;-59
2023/11/28 01:47:51;;;;;;;1.10;1.10;;;2.70;99.90;;;;;;5066976;28;20220;-59
2023/11/28 01:50:16;;;;;;;1.10;1.00;;;2.70;99.90;;;;;;5064839;28;20471;-60
2023/11/28 01:52:42;;;;;;;1.23;1.10;;;2.70;99.90;;;;;;5063521;28;20493;-58
2023/11/28 01:55:09;;;;;;;1.00;1.00;;;2.70;99.90;;;;;;5066814;28;20516;-60
2023/11/28 01:57:34;;;;;;;0.90;0.90;;;2.70;99.90;;;;;;5068550;28;20271;-60
2023/11/28 02:00:03;;;;;;;0.90;0.90;;;2.70;99.90;;;;;;5060033;28;20832;-60
2023/11/28 02:02:29;;;;;;;0.93;0.93;;;2.70;99.90;;;;;;5062504;28;20213;-59
2023/11/28 02:04:55;;;;;;;0.80;0.80;;;2.70;99.90;;;;;;5067880;28;20427;-59
2023/11/28 02:07:21;;;;;;;1.00;1.00;;;2.70;99.90;;;;;;5067885;28;20459;-59
2023/11/28 02:09:47;;;;;;;1.20;1.10;;;2.70;99.90;;;;;;5063398;28;20689;-60
2023/11/28 02:12:13;;;;;;;0.90;0.90;;;2.70;99.90;;;;;;5063601;28;20456;-60
2023/11/28 02:14:45;;;;;;;1.37;1.07;;;2.80;99.90;;;;;;5068474;28;20439;-59
2023/11/28 02:17:11;;;;;;;1.23;1.20;;;2.80;99.90;;;;;;5065472;28;20850;-60
2023/11/28 02:19:37;;;;;;;1.00;1.00;;;2.80;99.90;;;;;;5060996;28;20432;-60
2023/11/28 02:22:03;;;;;;;1.10;1.10;;;2.80;99.90;;;;;;5064696;28;20823;-60
2023/11/28 02:24:30;;;;;;;1.20;1.20;;;2.80;99.90;;;;;;5055480;28;20457;-60
2023/11/28 02:26:56;;;;;;;5.50;1.33;;;2.80;99.90;;;;;;5064604;28;20759;-59
2023/11/28 02:29:21;;;;;;;1.20;1.10;;;2.80;99.90;;;;;;5068581;28;20420;-59
2023/11/28 02:31:48;;;;;;;0.90;0.90;;;2.80;99.90;;;;;;5060923;28;20205;-59
2023/11/28 02:34:14;;;;;;;1.63;1.37;;;2.80;99.90;;;;;;5062294;28;20660;-59
2023/11/28 02:36:39;;;;;;;1.10;1.00;;;2.80;99.90;;;;;;5068295;28;20974;-60
2023/11/28 02:39:05;;;;;;;0.90;0.90;;;2.80;99.90;;;;;;5068482;28;20175;-60
2023/11/28 02:41:31;;;;;;;1.00;1.00;;;2.80;99.90;;;;;;5056288;28;21005;-60
2023/11/28 02:43:56;;;;;;;1.00;1.00;;;2.80;99.90;;;;;;5066048;28;20182;-60
2023/11/28 02:46:22;;;;;;;1.07;1.07;;;2.80;99.90;;;;;;5064037;28;20331;-59
2023/11/28 02:48:48;;;;;;;1.10;1.10;;;2.80;99.90;;;;;;5068192;28;20177;-60
2023/11/28 02:51:19;;;;;;;1.20;1.20;;;2.80;99.90;;;;;;5063876;28;20198;-60
2023/11/28 02:53:44;;;;;;;1.40;1.30;;;2.80;99.90;;;;;;5064184;28;20746;-60
2023/11/28 02:56:11;;;;;;;1.47;1.37;;;2.80;99.90;;;;;;5057010;28;20424;-60
2023/11/28 02:58:37;;;;;;;1.30;1.10;;;2.80;99.90;;;;;;5050997;28;20289;-59
2023/11/28 03:01:03;;;;;;;2.37;1.57;;;2.80;99.90;;;;;;5061438;28;20919;-59
2023/11/28 03:03:28;;;;;;;1.40;1.30;;;2.80;99.90;;;;;;5062231;28;20185;-60
2023/11/28 03:05:54;;;;;;;1.40;1.30;;;2.80;99.90;;;;;;5065825;28;20170;-60
2023/11/28 03:08:19;;;;;;;1.23;1.13;;;2.80;99.90;;;;;;5067626;28;20554;-60
2023/11/28 03:10:45;;;;;;;1.70;1.60;;;2.80;99.90;;;;;;5065463;28;20202;-59
2023/11/28 03:13:11;;;;;;;1.43;1.33;;;2.80;99.90;;;;;;5060941;28;20542;-60
2023/11/28 03:15:37;;;;;;;1.10;1.10;;;2.80;99.90;;;;;;5065205;28;20223;-59
2023/11/28 03:18:02;;;;;;;4.93;1.27;;;2.80;99.90;;;;;;5067843;28;22083;-59
2023/11/28 03:20:28;;;;;;;1.33;1.20;;;2.80;99.90;;;;;;5066820;28;20822;-59
2023/11/28 03:22:54;;;;;;;1.33;1.17;;;2.80;99.90;;;;;;5064517;28;20900;-59
2023/11/28 03:25:19;;;;;;;1.30;1.20;;;2.80;99.90;;;;;;5062744;28;20174;-61
2023/11/28 03:27:45;;;;;;;1.10;1.10;;;2.70;99.90;;;;;;5061271;28;20188;-60
2023/11/28 03:30:11;;;;;;;0.90;0.90;;;2.80;99.90;;;;;;5059026;28;20185;-60
2023/11/28 03:32:36;;;;;;;0.83;0.83;;;2.80;99.90;;;;;;5059200;28;20247;-60
2023/11/28 03:35:03;;;;;;;1.07;1.07;;;2.80;99.90;;;;;;5063374;28;20680;-59
2023/11/28 03:37:29;;;;;;;1.00;1.00;;;2.80;99.90;;;;;;5065375;28;20204;-59
2023/11/28 03:39:54;;;;;;;0.90;0.90;;;2.70;99.90;;;;;;5062818;28;21079;-60
2023/11/28 03:42:20;;;;;;;0.90;0.90;;;2.70;99.90;;;;;;5066902;28;20439;-59
2023/11/28 03:44:46;;;;;;;0.80;0.80;;;2.70;99.90;;;;;;5064719;28;20177;-59
2023/11/28 03:47:12;;;;;;;0.80;0.80;;;2.70;99.90;;;;;;5066428;28;20427;-60
2023/11/28 03:49:37;;;;;;;0.90;0.90;;;2.70;99.90;;;;;;5067701;28;20175;-60
2023/11/28 03:52:03;;;;;;;0.70;0.70;;;2.70;99.90;;;;;;5059272;28;20204;-61
2023/11/28 03:54:29;;;;;;;0.90;0.90;;;2.70;99.90;;;;;;5067129;28;20182;-60
2023/11/28 03:56:54;;;;;;;0.80;0.80;;;2.80;99.90;;;;;;5063576;28;20174;-60
2023/11/28 03:59:20;;;;;;;0.80;0.80;;;2.70;99.90;;;;;;5065195;28;20550;-60
2023/11/28 04:01:45;;;;;;;0.90;0.90;;;2.80;99.90;;;;;;5056319;28;20199;-59
2023/11/28 04:04:11;;;;;;;1.40;1.30;;;2.80;99.90;;;;;;5065764;28;20237;-60
2023/11/28 04:06:37;;;;;;;1.20;1.07;;;2.80;99.90;;;;;;5062486;28;20233;-60
2023/11/28 04:09:04;;;;;;;1.20;1.10;;;2.80;99.90;;;;;;5067192;28;20447;-60
2023/11/28 04:11:29;;;;;;;1.10;0.80;;;2.80;99.90;;;;;;5066683;28;20206;-61
2023/11/28 04:13:55;;;;;;;0.90;0.90;;;2.80;99.90;;;;;;5067224;28;20948;-60
2023/11/28 04:16:21;;;;;;;1.13;1.03;;;2.80;99.90;;;;;;5064985;28;20256;-60
2023/11/28 04:18:49;;;;;;;1.10;1.00;;;2.80;99.90;;;;;;5064617;28;20211;-59
2023/11/28 04:21:15;;;;;;;1.20;1.10;;;2.90;99.90;;;;;;5065362;28;20280;-60
2023/11/28 04:23:45;;;;;;;1.40;1.20;;;2.90;99.90;;;;;;5064462;28;20437;-60
2023/11/28 04:26:11;;;;;;;1.00;1.00;;;2.90;99.90;;;;;;5061341;28;20416;-61
2023/11/28 04:28:37;;;;;;;1.03;1.00;;;2.90;99.90;;;;;;5057462;28;20428;-60
2023/11/28 04:31:02;;;;;;;1.07;1.00;;;2.90;99.90;;;;;;5065300;28;20206;-59
2023/11/28 04:33:29;;;;;;;1.13;1.03;;;2.90;99.90;;;;;;5056592;28;20413;-60
2023/11/28 04:35:55;;;;;;;0.90;0.90;;;2.90;99.90;;;;;;5065309;28;20212;-60
2023/11/28 04:38:21;;;;;;;1.10;1.00;;;2.90;99.90;;;;;;5057788;28;20519;-59
2023/11/28 04:40:46;;;;;;;1.30;1.20;;;2.90;99.90;;;;;;5055326;28;20855;-59
2023/11/28 04:43:12;;;;;;;1.70;1.27;;;3.00;99.90;;;;;;5065050;28;20174;-60
2023/11/28 04:45:37;;;;;;;0.90;0.90;;;3.00;99.90;;;;;;5059362;28;20234;-59
2023/11/28 04:48:03;;;;;;;1.00;1.00;;;3.00;99.90;;;;;;5062844;28;20182;-61
2023/11/28 04:50:29;;;;;;;2.50;1.20;;;3.00;99.90;;;;;;5065673;28;20183;-60
2023/11/28 04:52:54;;;;;;;1.17;1.10;;;2.90;99.90;;;;;;5056111;28;20233;-60
2023/11/28 04:55:20;;;;;;;0.90;0.90;;;3.00;99.90;;;;;;5049529;28;20677;-58
2023/11/28 04:57:46;;;;;;;1.20;1.10;;;2.90;99.90;;;;;;5066592;28;20265;-55
2023/11/28 05:00:12;;;;;;;1.23;1.13;;;3.00;99.90;;;;;;5059826;28;20177;-58
2023/11/28 05:02:38;;;;;;;1.17;1.07;;;3.00;99.90;;;;;;5061829;28;20448;-56
2023/11/28 05:05:06;;;;;;;1.30;1.20;;;3.00;99.90;;;;;;5065264;28;20420;-57
2023/11/28 05:07:32;;;;;;;5.90;1.50;;;3.10;99.90;;;;;;5059755;28;20570;-62
2023/11/28 05:09:58;;;;;;;2.67;1.40;;;3.10;99.90;;;;;;5061239;28;20960;-60
2023/11/28 05:12:24;;;;;;;1.30;1.17;;;3.00;99.90;;;;;;5063303;28;20491;-60
2023/11/28 05:14:49;;;;;;;1.83;1.30;;;3.10;99.90;;;;;;5064006;28;20227;-60
2023/11/28 05:17:15;;;;;;;1.30;1.27;;;3.00;99.90;;;;;;5063401;28;20209;-60
2023/11/28 05:19:41;;;;;;;1.40;1.30;;;3.00;99.90;;;;;;5065345;28;20186;-60
2023/11/28 05:22:07;;;;;;;1.63;1.53;;;3.10;99.90;;;;;;5058439;28;20227;-60
2023/11/28 05:24:32;;;;;;;1.77;1.50;;;3.10;99.90;;;;;;5067485;28;20734;-61
2023/11/28 05:26:59;;;;;;;4.50;1.57;;;3.10;99.90;;;;;;5058187;28;20966;-60
2023/11/28 05:29:25;;;;;;;4.10;1.83;;;3.10;99.90;;;;;;5068962;28;20265;-60
2023/11/28 05:31:51;;;;;;;3.40;1.70;;;3.10;99.90;;;;;;5065954;28;20477;-60
2023/11/28 05:34:17;;;;;;;1.93;1.70;;;3.10;99.90;;;;;;5059103;28;20464;-61
2023/11/28 05:36:42;;;;;;;6.27;1.40;;;3.10;99.90;;;;;;5059916;28;20184;-61
2023/11/28 05:39:08;;;;;;;2.70;1.80;;;3.10;99.90;;;;;;5063330;28;20203;-61
2023/11/28 05:41:34;;;;;;;6.40;3.97;;;3.10;99.90;;;;;;5057209;28;20209;-60
2023/11/28 05:44:00;;;;;;;3.50;2.00;;;3.10;99.90;;;;;;5062869;28;21072;-60
2023/11/28 05:46:25;;;;;;;1.70;1.50;;;3.10;99.90;;;;;;5075239;28;20610;-60
2023/11/28 05:48:51;;;;;;;1.80;1.70;;;3.10;99.90;;;;;;5063279;28;20186;-60
2023/11/28 05:51:17;;;;;;;1.40;1.30;;;3.10;99.90;;;;;;5064987;28;20202;-61
2023/11/28 05:53:42;;;;;;;1.40;1.30;;;3.20;99.90;;;;;;5066537;28;20231;-60
2023/11/28 05:56:09;;;;;;;1.37;1.27;;;3.20;99.90;;;;;;5067480;28;20560;-60
2023/11/28 05:58:34;;;;;;;2.27;1.40;;;3.20;99.90;;;;;;5057091;28;20302;-59
2023/11/28 06:01:01;;;;;;;1.53;1.40;;;3.20;99.90;;;;;;5061938;28;20568;-61
2023/11/28 06:03:27;;;;;;;3.47;1.70;;;3.20;99.90;;;;;;5067979;28;20181;-59
2023/11/28 06:05:53;;;;;;;1.57;1.30;;;3.20;99.90;;;;;;5065092;28;20433;-60
2023/11/28 06:08:18;;;;;;;1.33;1.23;;;3.30;99.90;;;;;;5065413;28;20957;-60
2023/11/28 06:10:44;;;;;;;1.40;1.30;;;3.20;99.90;;;;;;5064115;28;20180;-60
2023/11/28 06:13:09;;;;;;;1.27;1.17;;;3.20;99.90;;;;;;5065815;28;20659;-61
2023/11/28 06:15:35;;;;;;;2.47;1.50;;;3.20;99.90;;;;;;5065486;28;20186;-60
2023/11/28 06:18:01;;;;;;;1.93;1.40;;;3.30;99.90;;;;;;5066166;28;20205;-60
2023/11/28 06:20:26;;;;;;;1.50;1.40;;;3.20;99.90;;;;;;5066188;28;20186;-61
2023/11/28 06:22:52;;;;;;;9.70;1.50;;;3.20;99.90;;;;;;5063169;28;20279;-61
2023/11/28 06:25:18;;;;;;;2.10;1.70;;;3.20;99.90;;;;;;5060678;28;20179;-61
2023/11/28 06:27:43;;;;;;;2.53;1.20;;;3.20;99.90;;;;;;5058740;28;20190;-60
2023/11/28 06:30:09;;;;;;;1.50;1.40;;;3.20;99.90;;;;;;5068703;28;20186;-60
2023/11/28 06:32:35;;;;;;;2.67;1.83;;;3.20;99.90;;;;;;5061353;28;20210;-61
2023/11/28 06:35:01;;;;;;;1.60;1.50;;;3.20;99.90;;;;;;5064103;28;20436;-60
2023/11/28 06:37:26;;;;;;;1.13;1.13;;;3.20;99.90;;;;;;5059451;28;20225;-60
2023/11/28 06:39:52;;;;;;;1.60;1.50;;;3.20;99.90;;;;;;5068021;28;21493;-61
2023/11/28 06:42:19;;;;;;;1.13;1.10;;;3.20;99.90;;;;;;5067348;28;20274;-60
2023/11/28 06:44:44;;;;;;;1.07;0.97;;;3.20;99.90;;;;;;5064346;28;20236;-61
2023/11/28 06:47:10;;;;;;;1.60;1.50;;;3.20;99.90;;;;;;5062896;28;20437;-60
2023/11/28 06:49:35;;;;;;;1.30;1.30;;;3.20;99.90;;;;;;5062258;28;20185;-60
2023/11/28 06:52:02;;;;;;;1.10;1.00;;;3.20;99.90;;;;;;5059200;28;20293;-60
2023/11/28 06:54:28;;;;;;;1.03;1.00;;;3.10;99.90;;;;;;5069054;28;20193;-60
2023/11/28 06:56:55;;;;;;;2.10;0.90;;;3.10;99.90;;;;;;5063272;28;20436;-60
2023/11/28 06:59:21;;;;;;;1.10;1.00;;;3.10;99.90;;;;;;5060397;28;21043;-60
2023/11/28 07:01:48;;;;;;;0.83;0.80;;;3.10;99.90;;;;;;5058120;28;20444;-60
2023/11/28 07:04:14;;;;;;;1.27;1.17;;;3.10;99.90;;;;;;5063504;28;20474;-60
2023/11/28 07:06:39;;;;;;;1.20;0.97;;;3.10;99.90;;;;;;5062577;28;20816;-60
2023/11/28 07:09:05;;;;;;;1.07;0.97;;;3.10;99.90;;;;;;5065013;28;20179;-60
2023/11/28 07:11:31;;;;;;;0.80;0.80;;;3.10;99.90;;;;;;5056701;28;20191;-60
2023/11/28 07:13:56;;;;;;;0.90;0.83;;;3.10;99.90;;;;;;5060114;28;20180;-61
2023/11/28 07:16:22;;;;;;;1.10;0.90;;;3.10;99.90;;;;;;5063658;28;20269;-60
2023/11/28 07:18:48;;;;;;;1.10;0.90;;;3.10;99.90;;;;;;5059606;28;20785;-60
2023/11/28 07:21:14;;;;;;;0.90;0.90;;;3.00;99.90;;;;;;5066000;28;20202;-60
2023/11/28 07:23:40;;;;;;;1.13;1.03;;;3.00;99.90;;;;;;5067123;28;20210;-61
2023/11/28 07:26:06;;;;;;;1.23;1.03;;;3.10;99.90;;;;;;5066091;28;20464;-60
2023/11/28 07:28:32;;;;;;;1.30;0.83;;;3.10;99.90;;;;;;5064295;28;20188;-60
2023/11/28 07:30:58;;;;;;;0.93;0.93;;;3.00;99.90;;;;;;5065083;28;20411;-60
2023/11/28 07:33:24;;;;;;;0.90;0.90;;;3.00;99.90;;;;;;5067955;28;20942;-61
2023/11/28 07:35:50;;;;;;;1.40;1.10;;;3.00;99.90;;;;;;5058338;28;20657;-61
2023/11/28 07:38:17;;;;;;;1.40;1.30;;;3.00;99.90;;;;;;5062808;28;20999;-60
2023/11/28 07:40:42;;;;;;;2.63;1.60;;;3.00;99.90;;;;;;5058376;28;20999;-60
2023/11/28 07:43:09;;;;;;;1.43;1.33;;;3.00;99.90;;;;;;5065713;28;20491;-61
2023/11/28 07:45:35;;;;;;;1.20;1.10;;;3.00;99.90;;;;;;5065532;28;20174;-60
2023/11/28 07:48:03;;;;;;;1.27;1.10;;;3.00;99.90;;;;;;5065439;28;20903;-60
2023/11/28 07:50:29;;;;;;;0.90;0.90;;;3.00;99.90;;;;;;5061505;28;20425;-60
2023/11/28 07:52:55;;;;;;;0.80;0.80;;;3.00;99.90;;;;;;5063085;28;20460;-62
2023/11/28 07:55:20;;;;;;;1.20;1.10;;;3.00;99.90;;;;;;5067159;28;20182;-60
2023/11/28 07:57:46;;;;;;;0.90;0.90;;;2.90;99.90;;;;;;5061348;28;20190;-60
2023/11/28 08:00:12;;;;;;;0.70;0.70;;;2.90;99.90;;;;;;5066695;28;20204;-61
2023/11/28 08:02:37;;;;;;;0.70;0.70;;;2.90;99.90;;;;;;5064157;28;20229;-60
2023/11/28 08:05:04;;;;;;;0.90;0.90;;;2.90;99.90;;;;;;5059033;28;20469;-61
2023/11/28 08:07:32;;;;;;;1.00;0.90;;;2.80;99.90;;;;;;5060197;28;20192;-60
2023/11/28 08:09:58;;;;;;;1.10;1.00;;;2.80;99.90;;;;;;5062016;28;20435;-61
2023/11/28 08:12:24;;;;;;;1.13;1.13;;;2.80;99.90;;;;;;5066397;28;20466;-60
2023/11/28 08:14:50;;;;;;;1.00;1.00;;;2.80;99.90;;;;;;5066925;28;20436;-61
2023/11/28 08:17:16;;;;;;;0.90;0.90;;;2.80;99.90;;;;;;5062972;28;21232;-60
2023/11/28 08:19:41;;;;;;;1.10;1.00;;;2.80;99.90;;;;;;5066306;28;20520;-61
2023/11/28 08:22:07;;;;;;;4.93;1.00;;;2.80;99.90;;;;;;5066104;28;20810;-60
2023/11/28 08:24:33;;;;;;;1.13;1.03;;;2.80;99.90;;;;;;5068075;28;20239;-62
2023/11/28 08:26:58;;;;;;;2.00;1.43;;;2.80;99.90;;;;;;5058491;28;20238;-60
2023/11/28 08:29:24;;;;;;;0.90;0.90;;;2.70;99.90;;;;;;5067008;28;20201;-61
2023/11/28 08:31:51;;;;;;;0.70;0.70;;;2.70;99.90;;;;;;5066266;28;20189;-60
2023/11/28 08:34:17;;;;;;;1.30;1.20;;;2.70;99.90;;;;;;5062581;28;20173;-60
2023/11/28 08:36:43;;;;;;;1.10;1.00;;;2.60;99.90;;;;;;5071188;28;20412;-61
2023/11/28 08:39:09;;;;;;;1.30;1.20;;;2.60;99.90;;;;;;5065283;28;20552;-60
2023/11/28 08:41:35;;;;;;;0.93;0.93;;;2.60;99.90;;;;;;5069515;28;20870;-60
2023/11/28 08:44:00;;;;;;;0.97;0.97;;;2.60;99.90;;;;;;5069918;28;20609;-61
2023/11/28 08:46:26;;;;;;;0.90;0.90;;;2.60;99.90;;;;;;5063403;28;20178;-60
2023/11/28 08:48:51;;;;;;;2.40;1.10;;;2.60;99.90;;;;;;5064512;28;20206;-60
2023/11/28 08:51:17;;;;;;;1.40;1.30;;;2.60;99.90;;;;;;5067389;28;20733;-60
2023/11/28 08:53:43;;;;;;;1.43;1.33;;;2.60;99.90;;;;;;5068940;28;20274;-63
2023/11/28 08:56:13;;;;;;;1.70;1.60;;;2.60;99.90;;;;;;5069678;28;20181;-60
2023/11/28 08:58:39;;;;;;;1.23;1.10;;;2.50;99.90;;;;;;5067480;28;20551;-62
2023/11/28 09:01:06;;;;;;;1.30;1.13;;;2.50;99.90;;;;;;5064864;28;20479;-60
2023/11/28 09:03:31;;;;;;;0.80;0.80;;;2.50;99.90;;;;;;5067149;28;20435;-59
2023/11/28 09:05:57;;;;;;;1.43;1.33;;;2.50;99.90;;;;;;5066656;28;20908;-60
2023/11/28 09:08:23;;;;;;;1.37;1.27;;;2.40;99.90;;;;;;5060922;28;20270;-60
2023/11/28 09:10:48;;;;;;;1.20;1.20;;;2.30;99.90;;;;;;5061476;28;20185;-59
2023/11/28 09:13:14;;;;;;;2.30;1.87;;;2.30;99.90;;;;;;5068459;28;20964;-61
2023/11/28 09:15:40;;;;;;;4.57;2.30;;;2.20;99.90;;;;;;5067954;28;20265;-60
2023/11/28 09:18:06;;;;;;;1.63;1.30;;;2.20;99.90;;;;;;5067231;28;20708;-60
2023/11/28 09:20:32;;;;;;;1.40;1.30;;;2.20;99.90;;;;;;5061373;28;20549;-61
2023/11/28 09:22:57;;;;;;;1.40;1.30;;;2.20;99.90;;;;;;5066663;28;20450;-60
2023/11/28 09:25:23;;;;;;;1.30;1.20;;;2.10;99.90;;;;;;5065867;28;20166;-61
2023/11/28 09:27:49;;;;;;;1.20;1.20;;;2.10;99.90;;;;;;5061909;28;20189;-60
2023/11/28 09:30:16;;;;;;;1.40;1.30;;;2.10;99.90;;;;;;5063590;28;20432;-60
2023/11/28 09:32:42;;;;;;;1.03;1.03;;;2.10;99.90;;;;;;5065948;28;20241;-60
2023/11/28 09:35:08;;;;;;;1.40;1.30;;;2.00;99.90;;;;;;5063625;28;20489;-62
2023/11/28 09:37:35;;;;;;;2.20;1.83;;;2.00;99.90;;;;;;5066524;28;20470;-62
2023/11/28 09:40:05;;;;;;;1.10;1.10;;;2.00;99.90;;;;;;5064747;28;20428;-59
2023/11/28 09:42:34;;;;;;;1.30;1.27;;;2.00;99.90;;;;;;5064047;28;20489;-60
2023/11/28 09:45:04;;;;;;;1.60;1.50;;;2.00;99.90;;;;;;5066585;28;20455;-61
2023/11/28 09:47:36;;;;;;;1.00;1.00;;;2.00;99.90;;;;;;5064385;28;20464;-60
2023/11/28 09:50:05;;;;;;;1.33;1.23;;;2.00;99.90;;;;;;5056656;28;20426;-60
2023/11/28 09:52:35;;;;;;;1.30;1.30;;;2.00;99.90;;;;;;5060690;28;20451;-62
2023/11/28 09:55:01;;;;;;;1.60;1.47;;;1.90;99.90;;;;;;5061926;28;20440;-61
2023/11/28 09:57:32;;;;;;;1.20;1.20;;;1.90;99.90;;;;;;5065073;28;20452;-60
2023/11/28 09:59:58;;;;;;;1.13;1.13;;;1.90;99.90;;;;;;5065295;28;20427;-60
2023/11/28 10:02:27;;;;;;;3.83;2.10;;;1.80;99.90;;;;;;5062869;28;20525;-60
2023/11/28 10:04:53;;;;;;;1.30;1.30;;;1.80;99.90;;;;;;5063639;28;20512;-60
2023/11/28 10:07:28;;;;;;;1.43;1.17;;;1.80;99.90;;;;;;5064754;28;20531;-61
2023/11/28 10:09:54;;;;;;;1.37;1.27;;;1.80;99.90;;;;;;5069128;28;20954;-61
2023/11/28 10:12:20;;;;;;;1.60;1.50;;;1.70;99.90;;;;;;5065433;28;20451;-61
2023/11/28 10:14:46;;;;;;;2.30;1.87;;;1.70;99.90;;;;;;5061697;28;20454;-60
2023/11/28 10:17:12;;;;;;;1.73;1.63;;;1.70;99.90;;;;;;5064084;28;20440;-60
2023/11/28 10:19:38;;;;;;;1.50;1.40;;;1.60;99.90;;;;;;5066911;28;20752;-60
2023/11/28 10:22:07;;;;;;;2.57;1.50;;;1.60;99.90;;;;;;5070587;28;20443;-60
2023/11/28 10:24:33;;;;;;;2.20;1.97;;;1.50;99.90;;;;;;5062247;28;20189;-60
2023/11/28 10:27:00;;;;;;;4.00;2.50;;;1.50;99.90;;;;;;5061076;28;20432;-61
2023/11/28 10:29:29;;;;;;;1.80;1.70;;;1.50;99.90;;;;;;5068902;28;20506;-60
2023/11/28 10:31:56;;;;;;;3.17;1.93;;;1.50;99.90;;;;;;5066256;28;20558;-61
2023/11/28 10:34:21;;;;;;;2.80;2.23;;;1.40;99.90;;;;;;5066313;28;20435;-59
2023/11/28 10:36:48;;;;;;;2.40;2.17;;;1.40;99.90;;;;;;5068854;28;20436;-59
2023/11/28 10:39:16;;;;;;;2.57;2.23;;;1.40;99.90;;;;;;5065581;28;20198;-61
2023/11/28 10:41:42;;;;;;;2.70;2.50;;;1.50;99.90;;;;;;5062065;28;20455;-61
2023/11/28 10:44:08;;;;;;;2.67;2.07;;;1.50;99.90;;;;;;5065545;28;20438;-61
2023/11/28 10:46:35;;;;;;;1.83;1.73;;;1.50;99.90;;;;;;5064550;28;20171;-60
2023/11/28 10:49:05;;;;;;;1.90;1.80;;;1.50;99.90;;;;;;5061201;28;20434;-61
2023/11/28 10:51:31;;;;;;;2.20;2.00;;;1.50;99.90;;;;;;5065145;28;20461;-60
2023/11/28 10:54:07;;;;;;;2.30;2.10;;;1.60;99.90;;;;;;5063978;28;20428;-60
2023/11/28 10:56:41;;;;;;;2.10;2.00;;;1.60;99.90;;;;;;5059801;28;20941;-60
2023/11/28 10:59:14;;;;;;;3.90;2.37;;;1.60;99.90;;;;;;5058310;28;21083;-60
2023/11/28 11:01:43;;;;;;;13.30;5.50;;;1.60;99.90;;;;;;5062806;28;20463;-60
2023/11/28 11:04:10;;;;;;;20.87;9.00;;;1.60;99.90;;;;;;5065510;28;20997;-61
2023/11/28 11:06:37;;;;;;;3.17;2.87;;;1.60;99.90;;;;;;5054479;28;20483;-59
2023/11/28 11:09:05;;;;;;;3.10;2.30;;;1.50;99.90;;;;;;5066899;28;20501;-61
2023/11/28 11:11:33;;;;;;;1.90;1.80;;;1.50;99.90;;;;;;5063886;28;21525;-61
2023/11/28 11:14:14;;;;;;;1.90;1.80;;;1.50;99.90;;;;;;5063571;28;20503;-60
2023/11/28 11:17:00;;;;;;;2.70;2.50;;;1.50;99.90;;;;;;5064712;28;20589;-61
2023/11/28 11:19:27;;;;;;;2.87;2.60;;;1.50;99.90;;;;;;5064466;28;20494;-60
2023/11/28 11:22:00;;;;;;;1.93;1.83;;;1.40;99.90;;;;;;5059059;28;20540;-60
2023/11/28 11:24:27;;;;;;;2.50;2.30;;;1.40;99.90;;;;;;5066789;28;20532;-60
2023/11/28 11:26:54;;;;;;;2.03;1.93;;;1.50;99.90;;;;;;5058399;28;20432;-60
2023/11/28 11:29:26;;;;;;;4.00;3.30;;;1.50;99.90;;;;;;5065017;28;20808;-60
2023/11/28 11:31:53;;;;;;;5.47;3.37;;;1.60;99.90;;;;;;5058957;28;20445;-60
2023/11/28 11:34:40;;;;;;;2.20;1.90;;;1.60;99.90;;;;;;5060989;28;20435;-59
2023/11/28 11:37:11;;;;;;;3.70;1.90;;;1.60;99.90;;;;;;5062780;28;20530;-60
2023/11/28 11:39:38;;;;;;;2.87;2.67;;;1.60;99.90;;;;;;5061609;28;20439;-60
2023/11/28 11:42:13;;;;;;;2.60;2.40;;;1.70;99.90;;;;;;5057508;28;20590;-60
2023/11/28 11:45:06;;;;;;;6.63;3.37;;;1.70;99.90;;;;;;5063613;28;20492;-61
2023/11/28 11:47:33;;;;;;;2.77;2.57;;;1.70;99.90;;;;;;5062773;28;20520;-60
2023/11/28 11:50:00;;;;;;;1.53;1.43;;;1.80;99.90;;;;;;5058858;28;20428;-60
2023/11/28 11:52:27;;;;;;;1.90;1.80;;;1.70;99.90;;;;;;5058813;28;21071;-60
2023/11/28 11:55:15;;;;;;;1.50;1.50;;;1.70;99.90;;;;;;5055182;28;20440;-60
2023/11/28 11:57:43;;;;;;;4.70;2.10;;;1.70;99.90;;;;;;5051706;28;20466;-60
2023/11/28 12:00:10;;;;;;;2.00;1.77;;;1.60;99.90;;;;;;5054419;28;21017;-60
2023/11/28 12:02:37;;;;;;;1.90;1.40;;;1.60;99.90;;;;;;5056853;28;20449;-60
2023/11/28 12:05:04;;;;;;;1.93;1.80;;;1.60;99.90;;;;;;5056636;28;20454;-60
2023/11/28 12:07:30;;;;;;;1.73;1.60;;;1.60;99.90;;;;;;5063178;28;20510;-61
2023/11/28 12:09:55;;;;;;;2.40;1.60;;;1.60;99.90;;;;;;5065729;28;21071;-59
2023/11/28 12:12:21;;;;;;;2.03;1.40;;;1.60;99.90;;;;;;5057805;28;20194;-61
2023/11/28 12:14:47;;;;;;;2.47;2.27;;;1.60;99.90;;;;;;5062520;28;20843;-59
2023/11/28 12:17:12;;;;;;;1.73;1.63;;;1.50;99.90;;;;;;5065280;28;20447;-60
2023/11/28 12:19:38;;;;;;;1.80;1.70;;;1.50;99.90;;;;;;5064097;28;20184;-60
2023/11/28 12:22:05;;;;;;;2.73;2.23;;;1.50;99.90;;;;;;5064374;28;20287;-60
2023/11/28 12:24:31;;;;;;;1.80;1.70;;;1.50;99.90;;;;;;5061678;28;20177;-60
2023/11/28 12:26:59;;;;;;;1.20;1.20;;;1.50;99.90;;;;;;5063198;28;20430;-60
2023/11/28 12:29:25;;;;;;;1.50;1.40;;;1.50;99.90;;;;;;5064406;28;20424;-60
2023/11/28 12:31:55;;;;;;;1.90;1.80;;;1.50;99.90;;;;;;5059733;28;20526;-60
2023/11/28 12:34:25;;;;;;;1.40;1.30;;;1.40;99.90;;;;;;5059909;28;20424;-57
2023/11/28 12:36:55;;;;;;;1.50;1.40;;;1.40;99.90;;;;;;5061616;28;20418;-60
2023/11/28 12:39:23;;;;;;;1.70;1.60;;;1.40;99.90;;;;;;5060404;28;20519;-60
2023/11/28 12:41:49;;;;;;;1.77;1.67;;;1.40;99.90;;;;;;5063029;28;20475;-60
2023/11/28 12:44:18;;;;;;;1.40;1.30;;;1.40;99.90;;;;;;5063511;28;20511;-61
2023/11/28 12:46:43;;;;;;;1.50;1.40;;;1.40;99.90;;;;;;5058868;28;20185;-60
2023/11/28 12:49:10;;;;;;;1.60;1.33;;;1.40;99.90;;;;;;5058712;28;21129;-60
2023/11/28 12:51:37;;;;;;;1.37;1.27;;;1.50;99.90;;;;;;5059446;28;20200;-60
2023/11/28 12:54:07;;;;;;;1.30;1.30;;;1.50;99.90;;;;;;5066923;28;20455;-60